Airfield :
LOGIN :

Register | Disclaimer

   EN    FR    IT 

 










Legend :    VFR   Marginal VFR   IFR   Intensive IFR   Very Intensive IFR
Visi :
Ceiling :
>= 8 km
>= 3000ft
5 to 8 km
1000 to 3000 ft
1500m to 5 km
500 to 1000 ft
800 to 1500m
200 to 500 ft
< 800m
< 200 ft
Symbols :   Thunderstorms  Fog  Heavy snow  Heavy precipitations  Wind > 20 kt
SIGMETs :     Misc.  Thunderstorms  Icing  Turbulence  Mountain Waves  Volcanic Ashes







- Airport Elevation : 468 ft
- IATA code : GRO


LEGE - Girona Costa Brava

CURRENT METAR :
  • 141830Z 31004KT 240V360 9999 FEW030 12/06 Q1011 NOSIG

EXPIRED METARs :
  • 141800Z 31006KT 250V010 9999 FEW030 12/06 Q1011 NOSIG
  • 141700Z 29004KT 9999 FEW030 12/05 Q1011 NOSIG
  • 141630Z 31004KT 230V020 9999 FEW030 12/05 Q1011 NOSIG
  • 141600Z 36001KT 9999 FEW030 11/05 Q1011 NOSIG

TAF TAF LEGE
Valid from the 14 at 18:00 until the 15 at 18:00 UTC


141700Z 1418/1518 VRB04KT 9999 FEW030 TX12/1512Z TN02/1507Z
TEMPO 1418/1423 31008KT
PROB40
TEMPO 1510/1514 SHRA BKN012 SCT020TCU
No reported NOTAMs for that airfield.



MET'MAP, your aeronautical weather chart ! - Copyright ORBIFLY December 2007 - Disclaimer

ORBIFLY MET'MAP TEAM :

Programming & Development : Alexandra Zaïnal
Concept & Development : Baudouin d'Aumeries
Co-Development & Prog : Marc-Olivier Méhu
Technical & hardware support : Manuel Goepfert

Contact : metmap@orbifly.com




SOURCES & CREDITS :

   NOAA